createdAt,value
2023-05-02T00:02:12.455Z,4.03
2023-05-02T00:04:39.120Z,4.40
2023-05-02T00:07:05.786Z,4.20
2023-05-02T00:09:32.349Z,4.22
2023-05-02T00:11:58.808Z,4.68
2023-05-02T00:14:25.409Z,4.30
2023-05-02T00:16:51.903Z,3.70
2023-05-02T00:19:18.412Z,4.43
2023-05-02T00:21:48.104Z,4.30
2023-05-02T00:24:15.269Z,4.40
2023-05-02T00:26:41.749Z,4.32
2023-05-02T00:29:08.342Z,4.25
2023-05-02T00:31:35.769Z,3.92
2023-05-02T00:34:02.395Z,4.07
2023-05-02T00:36:28.903Z,3.90
2023-05-02T00:38:55.394Z,3.90
2023-05-02T00:41:21.870Z,3.95
2023-05-02T00:43:48.653Z,4.25
2023-05-02T00:46:15.343Z,3.47
2023-05-02T00:48:41.887Z,4.38
2023-05-02T00:51:12.043Z,4.20
2023-05-02T00:53:39.095Z,4.30
2023-05-02T00:56:05.981Z,4.30
2023-05-02T00:58:32.524Z,4.72
2023-05-02T01:01:35.236Z,4.05
2023-05-02T01:04:13.862Z,4.40
2023-05-02T01:07:02.289Z,4.40
2023-05-02T01:09:44.377Z,4.10
2023-05-02T01:12:24.915Z,4.30
2023-05-02T01:14:56.844Z,4.28
2023-05-02T01:17:28.583Z,4.28
2023-05-02T01:19:58.742Z,4.65
2023-05-02T01:22:29.017Z,4.53
2023-05-02T01:25:30.909Z,4.50
2023-05-02T01:28:25.514Z,4.70
2023-05-02T01:30:52.828Z,5.15
2023-05-02T01:33:20.439Z,5.55
2023-05-02T01:35:50.368Z,5.60
2023-05-02T01:38:18.490Z,5.00
2023-05-02T01:40:46.056Z,5.53
2023-05-02T01:43:15.782Z,5.43
2023-05-02T01:45:44.448Z,5.88
2023-05-02T01:48:11.833Z,5.90
2023-05-02T01:50:39.384Z,5.45
2023-05-02T01:53:07.684Z,6.07
2023-05-02T01:55:36.058Z,6.03
2023-05-02T01:58:02.969Z,5.68
2023-05-02T02:00:29.914Z,6.25
2023-05-02T02:02:57.126Z,5.85
2023-05-02T02:05:24.546Z,6.00
2023-05-02T02:07:51.199Z,5.90
2023-05-02T02:10:17.885Z,5.68
2023-05-02T02:12:53.410Z,6.20
2023-05-02T02:15:23.794Z,6.05
2023-05-02T02:18:02.354Z,6.32
2023-05-02T02:20:30.143Z,6.30
2023-05-02T02:22:58.086Z,6.38
2023-05-02T02:25:25.532Z,5.90
2023-05-02T02:27:52.332Z,5.40
2023-05-02T02:30:18.892Z,5.43
2023-05-02T02:32:45.474Z,6.20
2023-05-02T02:35:11.993Z,5.70
2023-05-02T02:37:47.698Z,5.43
2023-05-02T02:40:31.962Z,5.78
2023-05-02T02:43:06.303Z,5.50
2023-05-02T02:45:41.837Z,5.82
2023-05-02T02:48:11.680Z,5.53
2023-05-02T02:50:47.300Z,5.53
2023-05-02T02:53:27.944Z,5.22
2023-05-02T02:56:03.660Z,5.30
2023-05-02T02:58:41.084Z,5.05
2023-05-02T03:01:12.367Z,5.72
2023-05-02T03:03:39.942Z,5.10
2023-05-02T03:06:06.686Z,4.97
2023-05-02T03:08:43.807Z,5.40
2023-05-02T03:11:15.259Z,4.97
2023-05-02T03:13:42.001Z,5.00
2023-05-02T03:16:36.849Z,4.35
2023-05-02T03:19:06.834Z,4.60
2023-05-02T03:21:33.540Z,4.60
2023-05-02T03:24:06.699Z,5.35
2023-05-02T03:26:33.536Z,5.18
2023-05-02T03:29:00.356Z,5.18
2023-05-02T03:31:32.887Z,4.68
2023-05-02T03:33:59.677Z,4.88
2023-05-02T03:36:26.228Z,5.15
2023-05-02T03:38:54.647Z,5.20
2023-05-02T03:41:21.222Z,4.82
2023-05-02T03:43:54.290Z,4.93
2023-05-02T03:46:23.521Z,5.03
2023-05-02T03:48:50.659Z,4.88
2023-05-02T03:51:17.919Z,5.20
2023-05-02T03:53:49.088Z,4.90
2023-05-02T03:56:22.020Z,4.85
2023-05-02T03:58:59.039Z,4.90
2023-05-02T04:01:26.379Z,5.50
2023-05-02T04:03:54.838Z,5.18
2023-05-02T04:06:23.779Z,5.50
2023-05-02T04:08:59.452Z,5.00
2023-05-02T04:11:30.865Z,5.00
2023-05-02T04:13:57.932Z,5.20
2023-05-02T04:16:24.545Z,4.90
2023-05-02T04:18:51.176Z,5.32
2023-05-02T04:21:18.523Z,5.00
2023-05-02T04:23:46.240Z,5.40
2023-05-02T04:26:14.961Z,5.07
2023-05-02T04:28:53.739Z,4.68
2023-05-02T04:31:20.405Z,4.55
2023-05-02T04:33:48.949Z,5.10
2023-05-02T04:36:22.144Z,4.90
2023-05-02T04:38:49.379Z,4.82
2023-05-02T04:41:17.435Z,4.80
2023-05-02T04:43:50.286Z,5.18
2023-05-02T04:46:18.440Z,5.15
2023-05-02T04:48:45.660Z,5.05
2023-05-02T04:51:13.499Z,4.85
2023-05-02T04:53:42.746Z,4.70
2023-05-02T04:56:09.257Z,5.50
2023-05-02T04:58:37.499Z,4.93
2023-05-02T05:01:07.272Z,4.82
2023-05-02T05:03:34.464Z,4.63
2023-05-02T05:06:02.312Z,5.00
2023-05-02T05:08:29.286Z,6.00
2023-05-02T05:10:57.514Z,5.15
2023-05-02T05:13:25.015Z,5.50
2023-05-02T05:15:52.568Z,5.57
2023-05-02T05:18:21.792Z,5.43
2023-05-02T05:20:48.347Z,5.47
2023-05-02T05:23:14.930Z,5.30
2023-05-02T05:25:42.947Z,5.25
2023-05-02T05:28:12.650Z,5.43
2023-05-02T05:30:39.215Z,5.30
2023-05-02T05:33:09.308Z,6.20
2023-05-02T05:35:36.117Z,6.38
2023-05-02T05:38:02.998Z,5.90
2023-05-02T05:40:32.418Z,5.75
2023-05-02T05:42:59.760Z,5.90
2023-05-02T05:45:33.482Z,5.72
2023-05-02T05:48:00.070Z,5.03
2023-05-02T05:50:30.826Z,5.55
2023-05-02T05:52:58.208Z,5.97
2023-05-02T05:55:24.954Z,5.40
2023-05-02T05:57:51.455Z,5.55
2023-05-02T06:00:19.031Z,5.25
2023-05-02T06:02:49.603Z,5.00
2023-05-02T06:05:24.736Z,4.95
2023-05-02T06:07:52.001Z,4.82
2023-05-02T06:10:18.452Z,4.68
2023-05-02T06:12:47.203Z,4.88
2023-05-02T06:15:16.404Z,4.45
2023-05-02T06:17:42.986Z,5.20
2023-05-02T06:20:09.693Z,4.90
2023-05-02T06:22:36.764Z,5.30
2023-05-02T06:25:05.155Z,5.65
2023-05-02T06:27:33.423Z,5.60
2023-05-02T06:30:00.482Z,5.72
2023-05-02T06:32:33.546Z,6.03
2023-05-02T06:35:00.191Z,6.30
2023-05-02T06:37:26.709Z,6.13
2023-05-02T06:39:53.209Z,6.00
2023-05-02T06:42:19.778Z,6.00
2023-05-02T06:44:46.303Z,6.43
2023-05-02T06:47:12.971Z,6.18
2023-05-02T06:49:39.570Z,6.40
2023-05-02T06:52:06.049Z,6.05
2023-05-02T06:54:32.486Z,6.80
2023-05-02T06:56:59.747Z,6.75
2023-05-02T06:59:26.225Z,6.53
2023-05-02T07:01:52.699Z,6.70
2023-05-02T07:04:19.291Z,6.28
2023-05-02T07:06:47.539Z,6.55
2023-05-02T07:09:14.101Z,6.65
2023-05-02T07:11:40.564Z,6.60
2023-05-02T07:14:07.284Z,6.72
2023-05-02T07:16:33.840Z,6.85
2023-05-02T07:19:01.549Z,6.28
2023-05-02T07:21:28.280Z,6.68
2023-05-02T07:23:57.497Z,7.15
2023-05-02T07:26:25.148Z,6.78
2023-05-02T07:28:51.705Z,6.32
2023-05-02T07:31:19.081Z,6.70
2023-05-02T07:33:45.733Z,6.88
2023-05-02T07:36:12.250Z,6.20
2023-05-02T07:38:38.705Z,6.75
2023-05-02T07:41:05.242Z,6.47
2023-05-02T07:43:32.128Z,6.60
2023-05-02T07:45:58.666Z,5.72
2023-05-02T07:48:27.646Z,5.80
2023-05-02T07:50:54.443Z,6.03
2023-05-02T07:53:20.936Z,6.93
2023-05-02T07:55:47.779Z,6.90
2023-05-02T07:58:14.301Z,6.65
2023-05-02T08:00:40.779Z,6.53
2023-05-02T08:03:07.746Z,7.00
2023-05-02T08:05:34.336Z,7.25
2023-05-02T08:08:01.926Z,6.93
2023-05-02T08:10:28.603Z,6.93
2023-05-02T08:12:55.144Z,6.68
2023-05-02T08:15:21.608Z,8.88
2023-05-02T08:17:48.192Z,8.40
2023-05-02T08:20:14.795Z,7.90
2023-05-02T08:22:41.288Z,9.48
2023-05-02T08:25:07.981Z,9.85
2023-05-02T08:27:35.417Z,9.30
2023-05-02T08:30:02.054Z,9.45
2023-05-02T08:32:30.144Z,10.45
2023-05-02T08:34:57.105Z,10.60
2023-05-02T08:37:23.552Z,10.30
2023-05-02T08:39:50.064Z,11.40
2023-05-02T08:42:16.568Z,11.27
2023-05-02T08:44:43.089Z,11.25
2023-05-02T08:47:11.303Z,11.00
2023-05-02T08:49:38.409Z,11.75
2023-05-02T08:52:06.732Z,11.02
2023-05-02T08:54:34.093Z,11.50
2023-05-02T08:57:03.521Z,10.63
2023-05-02T08:59:30.499Z,10.70
2023-05-02T09:02:01.699Z,11.00
2023-05-02T09:04:35.062Z,10.27
2023-05-02T09:07:01.797Z,10.88
2023-05-02T09:09:29.069Z,11.02
2023-05-02T09:11:55.555Z,11.50
2023-05-02T09:14:22.103Z,10.90
2023-05-02T09:16:48.585Z,11.80
2023-05-02T09:19:24.505Z,11.40
2023-05-02T09:21:51.156Z,11.48
2023-05-02T09:24:22.392Z,11.00
2023-05-02T09:27:04.290Z,10.75
2023-05-02T09:29:36.078Z,9.68
2023-05-02T09:32:04.051Z,9.52
2023-05-02T09:34:33.720Z,8.75
2023-05-02T09:37:00.274Z,9.00
2023-05-02T09:39:30.975Z,8.52
2023-05-02T09:41:58.417Z,9.10
2023-05-02T09:44:27.313Z,9.05
2023-05-02T09:46:55.872Z,8.50
2023-05-02T09:49:45.451Z,8.75
2023-05-02T09:52:14.525Z,8.32
2023-05-02T09:54:41.381Z,7.97
2023-05-02T09:57:07.923Z,7.90
2023-05-02T09:59:34.393Z,7.93
2023-05-02T10:02:03.245Z,7.65
2023-05-02T10:04:32.569Z,6.72
2023-05-02T10:06:59.535Z,6.47
2023-05-02T10:09:27.360Z,5.03
2023-05-02T10:11:55.293Z,5.75
2023-05-02T10:14:23.447Z,5.90
2023-05-02T10:17:08.436Z,4.82
2023-05-02T10:19:49.114Z,4.55
2023-05-02T10:22:19.369Z,3.58
2023-05-02T10:24:48.758Z,3.55
2023-05-02T10:27:15.305Z,3.97
2023-05-02T10:29:42.615Z,4.30
2023-05-02T10:32:09.837Z,3.10
2023-05-02T10:34:37.859Z,3.63
2023-05-02T10:37:04.796Z,3.45
2023-05-02T10:39:34.159Z,3.30
2023-05-02T10:42:02.289Z,3.60
2023-05-02T10:44:33.667Z,2.40
2023-05-02T10:47:00.744Z,2.70
2023-05-02T10:49:29.696Z,3.17
2023-05-02T10:51:56.222Z,2.92
2023-05-02T10:54:24.750Z,3.35
2023-05-02T10:57:03.267Z,2.70
2023-05-02T10:59:40.804Z,3.40
2023-05-02T11:02:26.064Z,3.00
2023-05-02T11:05:05.851Z,2.45
2023-05-02T11:07:37.253Z,3.30
2023-05-02T11:10:20.287Z,3.10
2023-05-02T11:13:01.242Z,3.60
2023-05-02T11:15:32.687Z,3.10
2023-05-02T11:18:03.682Z,3.08
2023-05-02T11:20:31.937Z,3.22
2023-05-02T11:23:22.652Z,2.78
2023-05-02T11:25:56.594Z,3.13
2023-05-02T11:31:51.607Z,2.90
2023-05-02T11:34:19.033Z,3.00
2023-05-02T11:36:46.678Z,3.00
2023-05-02T11:39:19.733Z,3.00
2023-05-02T11:41:48.331Z,3.10
2023-05-02T11:44:14.888Z,3.55
2023-05-02T11:46:42.156Z,2.97
2023-05-02T11:49:09.687Z,3.75
2023-05-02T11:51:36.605Z,3.70
2023-05-02T11:54:03.900Z,4.70
2023-05-02T11:56:30.422Z,4.75
2023-05-02T11:59:00.885Z,5.35
2023-05-02T12:01:28.046Z,5.10
2023-05-02T12:04:05.553Z,5.88
2023-05-02T12:06:32.279Z,5.88
2023-05-02T12:09:09.625Z,6.43
2023-05-02T12:11:38.165Z,5.88
2023-05-02T12:14:05.843Z,6.15
2023-05-02T12:16:32.941Z,6.53
2023-05-02T12:19:01.030Z,6.70
2023-05-02T12:21:29.328Z,6.05
2023-05-02T12:23:56.443Z,6.25
2023-05-02T12:26:25.587Z,5.95
2023-05-02T12:28:54.772Z,6.38
2023-05-02T12:31:21.959Z,6.85
2023-05-02T12:33:50.164Z,6.68
2023-05-02T12:36:17.661Z,6.50
2023-05-02T12:38:55.084Z,7.03
2023-05-02T12:41:44.808Z,9.05
2023-05-02T12:44:11.337Z,9.63
2023-05-02T12:46:38.630Z,9.93
2023-05-02T12:49:06.281Z,9.48
2023-05-02T12:51:33.037Z,9.77
2023-05-02T12:53:59.614Z,9.60
2023-05-02T12:56:31.979Z,9.35
2023-05-02T12:59:01.516Z,9.10
2023-05-02T13:01:28.747Z,8.32
2023-05-02T13:03:55.552Z,8.77
2023-05-02T13:06:22.091Z,7.80
2023-05-02T13:08:48.646Z,6.90
2023-05-02T13:11:15.731Z,7.13
2023-05-02T13:13:42.252Z,6.07
2023-05-02T13:16:08.831Z,6.60
2023-05-02T13:18:35.504Z,6.65
2023-05-02T13:21:02.270Z,7.05
2023-05-02T13:23:28.777Z,7.25
2023-05-02T13:25:55.598Z,8.70
2023-05-02T13:28:22.065Z,8.73
2023-05-02T13:30:48.554Z,8.70
2023-05-02T13:33:15.031Z,9.10
2023-05-02T13:35:41.542Z,9.32
2023-05-02T13:38:08.038Z,9.10
2023-05-02T13:40:34.513Z,8.60
2023-05-02T13:43:00.990Z,7.47
2023-05-02T13:45:27.521Z,7.05
2023-05-02T13:47:54.045Z,11.20
2023-05-02T13:50:21.048Z,10.77
2023-05-02T13:52:49.049Z,9.52
2023-05-02T13:55:16.045Z,22.63
2023-05-02T13:57:42.698Z,10.60
2023-05-02T14:00:09.952Z,10.52
2023-05-02T14:02:36.931Z,9.95
2023-05-02T14:05:03.611Z,11.45
2023-05-02T14:07:30.541Z,9.98
2023-05-02T14:09:57.058Z,10.40
2023-05-02T14:12:23.554Z,10.13
2023-05-02T14:14:50.025Z,9.43
2023-05-02T14:17:16.552Z,7.88
2023-05-02T14:19:43.044Z,8.05
2023-05-02T14:22:09.506Z,7.43
2023-05-02T14:24:36.426Z,7.00
2023-05-02T14:27:04.618Z,7.13
2023-05-02T14:29:31.083Z,7.00
2023-05-02T14:31:57.591Z,6.90
2023-05-02T14:34:26.866Z,7.00
2023-05-02T14:36:53.442Z,7.88
2023-05-02T14:39:19.902Z,8.75
2023-05-02T14:41:46.373Z,7.63
2023-05-02T14:44:12.871Z,7.82
2023-05-02T14:46:39.792Z,8.00
2023-05-02T14:49:06.438Z,8.35
2023-05-02T14:51:32.989Z,8.43
2023-05-02T14:53:59.858Z,8.38
2023-05-02T14:56:26.411Z,8.00
2023-05-02T14:58:52.880Z,8.70
2023-05-02T15:01:21.061Z,8.88
2023-05-02T15:04:04.064Z,7.95
2023-05-02T15:06:32.621Z,8.25
2023-05-02T15:08:59.292Z,8.65
2023-05-02T15:11:25.813Z,8.25
2023-05-02T15:13:52.419Z,8.02
2023-05-02T15:16:19.041Z,8.77
2023-05-02T15:18:45.709Z,7.80
2023-05-02T15:21:12.482Z,8.55
2023-05-02T15:23:39.370Z,7.40
2023-05-02T15:26:06.430Z,7.40
2023-05-02T15:28:32.924Z,7.15
2023-05-02T15:30:59.421Z,7.25
2023-05-02T15:33:25.941Z,6.78
2023-05-02T15:35:54.963Z,6.68
2023-05-02T15:38:21.855Z,6.47
2023-05-02T15:40:59.413Z,5.85
2023-05-02T15:43:26.691Z,6.28
2023-05-02T15:45:59.726Z,5.68
2023-05-02T15:48:30.606Z,6.28
2023-05-02T15:50:57.322Z,5.50
2023-05-02T15:53:23.841Z,5.15
2023-05-02T15:55:51.654Z,5.00
2023-05-02T15:58:18.913Z,4.75
2023-05-02T16:00:46.950Z,4.78
2023-05-02T16:03:13.889Z,5.03
2023-05-02T16:05:40.427Z,4.97
2023-05-02T16:08:06.962Z,5.03
2023-05-02T16:10:36.288Z,5.20
2023-05-02T16:13:02.904Z,5.22
2023-05-02T16:15:30.343Z,5.10
2023-05-02T16:17:57.166Z,4.85
2023-05-02T16:20:23.879Z,4.97
2023-05-02T16:22:50.397Z,3.95
2023-05-02T16:25:17.194Z,4.40
2023-05-02T16:27:43.740Z,4.53
2023-05-02T16:30:10.660Z,4.50
2023-05-02T16:32:37.631Z,4.38
2023-05-02T16:35:07.254Z,3.92
2023-05-02T16:37:35.047Z,3.92
2023-05-02T16:40:01.981Z,4.15
2023-05-02T16:42:29.051Z,4.20
2023-05-02T16:44:56.129Z,4.07
2023-05-02T16:47:22.758Z,3.95
2023-05-02T16:49:56.351Z,4.13
2023-05-02T16:52:22.897Z,6.20
2023-05-02T16:54:49.596Z,5.28
2023-05-02T16:57:22.328Z,4.90
2023-05-02T16:59:50.490Z,4.90
2023-05-02T17:02:17.834Z,5.40
2023-05-02T17:04:44.395Z,5.68
2023-05-02T17:07:12.241Z,5.10
2023-05-02T17:09:39.567Z,4.85
2023-05-02T17:12:06.551Z,4.80
2023-05-02T17:14:33.449Z,4.80
2023-05-02T17:17:01.194Z,4.38
2023-05-02T17:19:27.913Z,4.35
2023-05-02T17:21:54.772Z,3.50
2023-05-02T17:24:21.325Z,4.07
2023-05-02T17:26:47.813Z,4.28
2023-05-02T17:29:14.281Z,4.15
2023-05-02T17:31:41.029Z,4.25
2023-05-02T17:34:07.635Z,4.60
2023-05-02T17:36:34.588Z,4.50
2023-05-02T17:39:01.103Z,4.03
2023-05-02T17:41:27.628Z,4.43
2023-05-02T17:43:54.095Z,4.50
2023-05-02T17:46:20.679Z,4.53
2023-05-02T17:48:47.198Z,4.85
2023-05-02T17:51:13.679Z,5.43
2023-05-02T17:53:40.154Z,4.93
2023-05-02T17:56:06.919Z,5.00
2023-05-02T17:58:35.428Z,4.90
2023-05-02T18:01:09.283Z,4.75
2023-05-02T18:03:36.317Z,5.43
2023-05-02T18:06:02.928Z,5.57
2023-05-02T18:08:31.228Z,5.22
2023-05-02T18:10:58.734Z,5.20
2023-05-02T18:13:26.137Z,5.63
2023-05-02T18:15:59.814Z,5.20
2023-05-02T18:18:26.299Z,4.85
2023-05-02T18:20:52.816Z,5.53
2023-05-02T18:23:19.379Z,5.45
2023-05-02T18:25:45.865Z,5.22
2023-05-02T18:28:13.280Z,5.13
2023-05-02T18:30:40.358Z,5.25
2023-05-02T18:33:07.536Z,5.20
2023-05-02T18:35:34.091Z,5.00
2023-05-02T18:38:00.551Z,5.30
2023-05-02T18:40:27.275Z,4.97
2023-05-02T18:42:53.815Z,5.88
2023-05-02T18:45:21.074Z,6.03
2023-05-02T18:47:47.661Z,5.50
2023-05-02T18:50:14.189Z,5.90
2023-05-02T18:52:40.767Z,6.43
2023-05-02T18:55:07.606Z,5.35
2023-05-02T18:57:34.190Z,6.53
2023-05-02T19:00:00.941Z,6.10
2023-05-02T19:02:27.698Z,6.47
2023-05-02T19:04:54.482Z,6.28
2023-05-02T19:07:20.932Z,6.95
2023-05-02T19:09:47.396Z,6.32
2023-05-02T19:12:13.852Z,7.25
2023-05-02T19:14:40.812Z,7.60
2023-05-02T19:17:07.293Z,6.55
2023-05-02T19:19:33.727Z,7.18
2023-05-02T19:22:00.191Z,7.43
2023-05-02T19:24:26.830Z,6.80
2023-05-02T19:26:53.312Z,5.78
2023-05-02T19:29:19.790Z,6.25
2023-05-02T19:31:46.327Z,6.57
2023-05-02T19:34:12.964Z,5.97
2023-05-02T19:36:39.472Z,6.30
2023-05-02T19:39:06.296Z,6.25
2023-05-02T19:41:32.988Z,6.13
2023-05-02T19:43:59.934Z,5.88
2023-05-02T19:46:26.969Z,5.32
2023-05-02T19:48:53.539Z,5.32
2023-05-02T19:51:25.614Z,4.95
2023-05-02T19:53:58.351Z,4.45
2023-05-02T19:56:26.118Z,4.63
2023-05-02T19:59:00.937Z,4.32
2023-05-02T20:01:29.509Z,4.68
2023-05-02T20:03:56.171Z,4.10
2023-05-02T20:06:22.655Z,4.35
2023-05-02T20:08:50.993Z,4.78
2023-05-02T20:11:17.465Z,3.97
2023-05-02T20:13:44.531Z,3.50
2023-05-02T20:16:13.147Z,3.30
2023-05-02T20:18:39.689Z,3.60
2023-05-02T20:21:06.129Z,3.58
2023-05-02T20:23:32.647Z,3.72
2023-05-02T20:25:59.138Z,3.78
2023-05-02T20:28:25.870Z,3.30
2023-05-02T20:30:52.322Z,2.92
2023-05-02T20:33:19.674Z,3.20
2023-05-02T20:35:53.237Z,3.33
2023-05-02T20:38:20.410Z,2.85
2023-05-02T20:40:46.876Z,3.40
2023-05-02T20:43:14.207Z,3.47
2023-05-02T20:45:40.806Z,3.30
2023-05-02T20:48:07.396Z,3.60
2023-05-02T20:50:33.932Z,3.33
2023-05-02T20:53:00.474Z,3.60
2023-05-02T20:55:27.535Z,3.70
2023-05-02T20:57:54.065Z,3.40
2023-05-02T21:00:23.663Z,3.45
2023-05-02T21:02:50.279Z,4.10
2023-05-02T21:05:16.949Z,3.63
2023-05-02T21:07:44.657Z,3.38
2023-05-02T21:10:11.238Z,2.97
2023-05-02T21:12:37.713Z,3.15
2023-05-02T21:15:04.516Z,3.47
2023-05-02T21:17:31.128Z,3.88
2023-05-02T21:19:57.665Z,3.72
2023-05-02T21:22:24.147Z,3.88
2023-05-02T21:24:50.855Z,3.63
2023-05-02T21:27:17.364Z,4.05
2023-05-02T21:29:43.911Z,3.70
2023-05-02T21:32:10.658Z,3.90
2023-05-02T21:34:37.279Z,3.70
2023-05-02T21:37:04.286Z,3.72
2023-05-02T21:39:30.756Z,3.90
2023-05-02T21:41:57.263Z,3.72
2023-05-02T21:44:23.784Z,4.03
2023-05-02T21:46:50.734Z,3.63
2023-05-02T21:49:17.252Z,3.90
2023-05-02T21:51:43.714Z,3.47
2023-05-02T21:54:10.200Z,3.35
2023-05-02T21:56:36.721Z,3.78
2023-05-02T21:59:03.407Z,4.05
2023-05-02T22:01:30.022Z,3.17
2023-05-02T22:03:57.951Z,3.65
2023-05-02T22:06:25.044Z,3.78
2023-05-02T22:08:51.677Z,3.63
2023-05-02T22:11:18.132Z,3.50
2023-05-02T22:13:44.628Z,3.90
2023-05-02T22:16:11.328Z,3.85
2023-05-02T22:18:37.824Z,3.80
2023-05-02T22:21:04.383Z,4.53
2023-05-02T22:23:31.091Z,3.55
2023-05-02T22:25:57.708Z,3.55
2023-05-02T22:28:24.253Z,3.78
2023-05-02T22:30:50.964Z,4.03
2023-05-02T22:33:17.445Z,3.95
2023-05-02T22:35:43.880Z,3.50
2023-05-02T22:38:14.668Z,3.42
2023-05-02T22:40:41.328Z,3.13
2023-05-02T22:43:08.243Z,3.28
2023-05-02T22:45:36.331Z,3.80
2023-05-02T22:48:02.978Z,3.35
2023-05-02T22:50:30.174Z,3.25
2023-05-02T22:52:57.146Z,3.65
2023-05-02T22:55:24.120Z,3.78
2023-05-02T22:57:50.634Z,3.53
2023-05-02T23:00:17.246Z,3.97
2023-05-02T23:02:43.778Z,3.47
2023-05-02T23:05:10.338Z,3.72
2023-05-02T23:07:36.783Z,3.95
2023-05-02T23:10:03.590Z,3.75
2023-05-02T23:12:30.344Z,3.72
2023-05-02T23:14:56.944Z,3.78
2023-05-02T23:17:23.538Z,3.97
2023-05-02T23:19:50.469Z,3.63
2023-05-02T23:22:17.050Z,4.07
2023-05-02T23:24:46.046Z,4.03
2023-05-02T23:27:12.609Z,4.05
2023-05-02T23:29:39.084Z,4.25
2023-05-02T23:32:07.991Z,4.13
2023-05-02T23:34:36.205Z,3.90
2023-05-02T23:37:03.022Z,4.18
2023-05-02T23:39:29.479Z,3.80
2023-05-02T23:41:56.095Z,4.55
2023-05-02T23:44:22.646Z,3.70
2023-05-02T23:46:49.227Z,4.00
2023-05-02T23:49:16.373Z,4.18
2023-05-02T23:51:42.826Z,3.90
2023-05-02T23:54:09.268Z,3.80
2023-05-02T23:56:35.761Z,3.80
2023-05-02T23:59:02.223Z,4.05
